Oakland, Michigan
Current Conditions -  °F | °C
As of 12:53 AM on Sunday 26 Oct 2014 (Local Time) from KPTK Reporting Station
Clear Clear  
Wind Chill: 52°   Ceiling: Unl
Heat Index: 52°   Visibility: 10mi
Dew Point: 31°   Wind: 15mph
Humidity: 45%   Direction: 300°WNW
Pressure: 29.81"   Gusts: NA
Location:  42.77°N, 83.18°W
Report Text: KPTK 260453Z AUTO 30013KT 10SM CLR 11/M01 A2981 RMK AO2 SLP095 T01111006 401890061
Loading
Personal Weather Stations






























Interactive Weather Map
Tropical Storm Tracking
New forecast layout! Learn more

10-Day Weather Forecast

Advertisements
Track Severe Weather on mobile